createdAt,value
2023-10-26T00:00:40.290Z,13.77
2023-10-26T00:01:24.328Z,13.79
2023-10-26T00:02:06.010Z,13.82
2023-10-26T00:02:50.466Z,13.85
2023-10-26T00:03:32.487Z,13.77
2023-10-26T00:04:14.410Z,13.75
2023-10-26T00:04:56.265Z,13.69
2023-10-26T00:05:38.097Z,13.71
2023-10-26T00:06:19.965Z,13.61
2023-10-26T00:07:02.013Z,13.69
2023-10-26T00:07:43.699Z,13.67
2023-10-26T00:08:25.399Z,13.66
2023-10-26T00:09:07.237Z,13.64
2023-10-26T00:09:49.107Z,13.72
2023-10-26T00:10:31.187Z,13.66
2023-10-26T00:11:12.923Z,13.61
2023-10-26T00:11:54.701Z,13.69
2023-10-26T00:12:36.652Z,13.70
2023-10-26T00:13:18.348Z,13.66
2023-10-26T00:14:00.087Z,13.58
2023-10-26T00:14:41.975Z,13.49
2023-10-26T00:15:23.985Z,13.64
2023-10-26T00:16:05.897Z,13.60
2023-10-26T00:16:47.690Z,13.47
2023-10-26T00:17:29.440Z,13.70
2023-10-26T00:18:11.262Z,13.66
2023-10-26T00:18:53.112Z,13.68
2023-10-26T00:19:36.391Z,13.71
2023-10-26T00:20:18.294Z,13.73
2023-10-26T00:21:01.313Z,13.72
2023-10-26T00:21:43.188Z,13.73
2023-10-26T00:22:25.091Z,13.79
2023-10-26T00:23:08.131Z,13.72
2023-10-26T00:23:49.884Z,13.82
2023-10-26T00:24:32.122Z,13.76
2023-10-26T00:25:13.924Z,13.75
2023-10-26T00:25:55.748Z,13.78
2023-10-26T00:26:37.425Z,13.70
2023-10-26T00:27:19.304Z,13.72
2023-10-26T00:28:01.102Z,13.59
2023-10-26T00:28:42.768Z,13.75
2023-10-26T00:29:24.503Z,13.75
2023-10-26T00:30:07.142Z,13.73
2023-10-26T00:30:49.037Z,13.76
2023-10-26T00:31:30.744Z,13.74
2023-10-26T00:32:12.441Z,13.65
2023-10-26T00:32:54.386Z,13.86
2023-10-26T00:33:36.358Z,13.69
2023-10-26T00:34:18.053Z,13.76
2023-10-26T00:34:59.791Z,13.73
2023-10-26T00:35:41.482Z,13.61
2023-10-26T00:36:23.226Z,13.71
2023-10-26T00:37:04.989Z,13.80
2023-10-26T00:37:46.789Z,13.76
2023-10-26T00:38:28.438Z,13.62
2023-10-26T00:39:10.229Z,13.68
2023-10-26T00:39:52.162Z,13.30
2023-10-26T00:40:33.968Z,13.65
2023-10-26T00:41:15.684Z,13.62
2023-10-26T00:41:57.466Z,13.61
2023-10-26T00:42:39.511Z,13.42
2023-10-26T00:43:22.767Z,13.42
2023-10-26T00:44:05.209Z,13.57
2023-10-26T00:44:47.788Z,13.60
2023-10-26T00:45:36.467Z,13.61
2023-10-26T00:46:18.884Z,13.53
2023-10-26T00:47:01.499Z,13.63
2023-10-26T00:47:43.786Z,13.50
2023-10-26T00:48:29.549Z,13.51
2023-10-26T00:49:55.646Z,13.51
2023-10-26T00:50:37.870Z,13.60
2023-10-26T00:51:19.930Z,13.44
2023-10-26T00:52:03.734Z,13.64
2023-10-26T00:52:45.747Z,13.66
2023-10-26T00:53:27.582Z,13.65
2023-10-26T00:54:09.462Z,13.62
2023-10-26T00:54:54.709Z,13.54
2023-10-26T00:55:38.096Z,13.60
2023-10-26T00:56:22.451Z,13.58
2023-10-26T00:57:04.858Z,13.57
2023-10-26T00:57:47.025Z,13.40
2023-10-26T00:58:30.431Z,13.33
2023-10-26T00:59:12.395Z,13.48
2023-10-26T00:59:54.281Z,13.57
2023-10-26T01:00:37.513Z,13.32
2023-10-26T01:01:19.687Z,13.34
2023-10-26T01:02:03.790Z,13.53
2023-10-26T01:02:45.524Z,13.45
2023-10-26T01:03:30.790Z,13.43
2023-10-26T01:04:17.186Z,13.55
2023-10-26T01:04:58.881Z,13.44
2023-10-26T01:05:41.576Z,13.56
2023-10-26T01:06:24.296Z,13.54
2023-10-26T01:07:06.000Z,13.43
2023-10-26T01:07:48.432Z,13.52
2023-10-26T01:08:30.231Z,13.45
2023-10-26T01:09:12.619Z,13.55
2023-10-26T01:09:54.674Z,13.54
2023-10-26T01:10:36.776Z,13.40
2023-10-26T01:11:18.655Z,13.54
2023-10-26T01:12:02.410Z,13.41
2023-10-26T01:12:44.386Z,13.51
2023-10-26T01:13:26.330Z,13.50
2023-10-26T01:14:08.726Z,13.55
2023-10-26T01:14:51.014Z,13.54
2023-10-26T01:15:32.856Z,13.55
2023-10-26T01:16:14.916Z,13.34
2023-10-26T01:16:56.809Z,13.54
2023-10-26T01:17:40.136Z,13.44
2023-10-26T01:18:25.189Z,13.33
2023-10-26T01:19:09.829Z,13.49
2023-10-26T01:19:51.878Z,13.41
2023-10-26T01:20:33.670Z,13.29
2023-10-26T01:21:15.473Z,13.46
2023-10-26T01:21:57.499Z,13.44
2023-10-26T01:22:40.301Z,13.27
2023-10-26T01:23:22.009Z,13.15
2023-10-26T01:24:04.275Z,13.44
2023-10-26T01:24:46.221Z,13.28
2023-10-26T01:25:28.088Z,13.22
2023-10-26T01:26:09.858Z,13.32
2023-10-26T01:26:51.634Z,13.35
2023-10-26T01:27:33.943Z,13.29
2023-10-26T01:28:15.773Z,13.22
2023-10-26T01:29:03.851Z,13.27
2023-10-26T01:29:45.667Z,13.49
2023-10-26T01:30:27.492Z,13.52
2023-10-26T01:31:09.376Z,13.45
2023-10-26T01:31:51.163Z,13.42
2023-10-26T01:32:32.857Z,13.43
2023-10-26T01:33:14.692Z,13.43
2023-10-26T01:33:56.486Z,13.46
2023-10-26T01:34:38.254Z,13.34
2023-10-26T01:35:22.778Z,13.39
2023-10-26T01:36:05.053Z,13.40
2023-10-26T01:36:46.811Z,13.36
2023-10-26T01:37:31.283Z,13.42
2023-10-26T01:38:13.502Z,13.26
2023-10-26T01:38:58.213Z,13.26
2023-10-26T01:39:40.005Z,13.42
2023-10-26T01:40:21.974Z,13.21
2023-10-26T01:41:04.724Z,13.42
2023-10-26T01:41:48.303Z,13.41
2023-10-26T01:42:30.052Z,13.32
2023-10-26T01:43:12.032Z,13.47
2023-10-26T01:43:53.800Z,13.42
2023-10-26T01:44:35.804Z,13.15
2023-10-26T01:45:17.542Z,13.37
2023-10-26T01:45:59.277Z,13.36
2023-10-26T01:46:41.346Z,13.31
2023-10-26T01:47:23.366Z,13.24
2023-10-26T01:48:05.631Z,13.28
2023-10-26T01:48:47.398Z,13.31
2023-10-26T01:49:29.209Z,13.26
2023-10-26T01:50:11.497Z,13.34
2023-10-26T01:50:53.195Z,13.34
2023-10-26T01:51:35.114Z,13.19
2023-10-26T01:52:17.612Z,13.39
2023-10-26T01:52:59.511Z,13.18
2023-10-26T01:53:41.748Z,13.18
2023-10-26T01:54:23.489Z,13.41
2023-10-26T01:55:05.708Z,13.22
2023-10-26T01:55:47.750Z,13.35
2023-10-26T01:56:31.121Z,13.37
2023-10-26T01:57:13.204Z,13.20
2023-10-26T01:57:58.603Z,13.34
2023-10-26T01:58:40.555Z,13.30
2023-10-26T01:59:22.323Z,13.22
2023-10-26T02:00:04.493Z,13.28
2023-10-26T02:00:53.944Z,13.27
2023-10-26T02:01:35.700Z,13.24
2023-10-26T02:02:17.380Z,13.24
2023-10-26T02:02:59.211Z,13.29
2023-10-26T02:03:41.035Z,13.22
2023-10-26T02:04:22.913Z,13.28
2023-10-26T02:05:05.063Z,13.13
2023-10-26T02:05:47.476Z,13.28
2023-10-26T02:06:29.400Z,13.19
2023-10-26T02:07:12.564Z,13.25
2023-10-26T02:07:54.362Z,13.14
2023-10-26T02:08:36.603Z,13.14
2023-10-26T02:09:18.306Z,13.22
2023-10-26T02:10:00.340Z,13.24
2023-10-26T02:10:42.578Z,13.17
2023-10-26T02:11:27.929Z,13.27
2023-10-26T02:12:09.668Z,13.17
2023-10-26T02:12:51.884Z,13.05
2023-10-26T02:13:33.693Z,13.23
2023-10-26T02:14:15.465Z,13.20
2023-10-26T02:14:57.630Z,13.07
2023-10-26T02:15:39.446Z,13.20
2023-10-26T02:16:21.523Z,13.15
2023-10-26T02:17:03.239Z,13.16
2023-10-26T02:17:44.963Z,13.14
2023-10-26T02:18:26.882Z,13.19
2023-10-26T02:19:08.759Z,13.19
2023-10-26T02:19:50.621Z,13.07
2023-10-26T02:20:32.535Z,13.10
2023-10-26T02:21:17.852Z,13.19
2023-10-26T02:21:59.723Z,13.27
2023-10-26T02:22:41.396Z,13.32
2023-10-26T02:23:23.089Z,13.24
2023-10-26T02:24:05.446Z,13.22
2023-10-26T02:24:47.303Z,13.36
2023-10-26T02:25:29.036Z,13.25
2023-10-26T02:26:11.175Z,13.32
2023-10-26T02:26:52.953Z,13.25
2023-10-26T02:27:35.070Z,13.48
2023-10-26T02:28:20.748Z,13.50
2023-10-26T02:29:02.413Z,13.43
2023-10-26T02:29:44.084Z,13.37
2023-10-26T02:30:26.009Z,13.34
2023-10-26T02:31:07.749Z,13.28
2023-10-26T02:31:49.507Z,12.91
2023-10-26T02:32:31.926Z,13.21
2023-10-26T02:33:13.742Z,13.13
2023-10-26T02:33:57.724Z,13.28
2023-10-26T02:34:39.373Z,13.27
2023-10-26T02:35:21.923Z,13.27
2023-10-26T02:36:05.701Z,13.10
2023-10-26T02:36:47.636Z,13.28
2023-10-26T02:37:29.485Z,13.33
2023-10-26T02:38:11.221Z,13.27
2023-10-26T02:38:52.900Z,13.24
2023-10-26T02:39:34.847Z,13.13
2023-10-26T02:40:16.519Z,13.27
2023-10-26T02:41:04.044Z,13.27
2023-10-26T02:41:45.830Z,13.19
2023-10-26T02:42:27.804Z,13.29
2023-10-26T02:43:09.582Z,13.28
2023-10-26T02:43:51.554Z,13.21
2023-10-26T02:44:33.466Z,13.19
2023-10-26T02:45:15.572Z,13.07
2023-10-26T02:46:06.281Z,13.22
2023-10-26T02:46:48.106Z,13.22
2023-10-26T02:47:29.922Z,13.18
2023-10-26T02:48:11.835Z,13.20
2023-10-26T02:48:53.661Z,13.18
2023-10-26T02:49:35.724Z,13.16
2023-10-26T02:50:17.518Z,13.19
2023-10-26T02:50:59.368Z,13.04
2023-10-26T02:51:41.957Z,13.01
2023-10-26T02:52:23.716Z,13.25
2023-10-26T02:53:05.455Z,13.09
2023-10-26T02:53:47.204Z,13.11
2023-10-26T02:54:29.350Z,13.24
2023-10-26T02:55:11.142Z,13.15
2023-10-26T02:55:53.255Z,13.17
2023-10-26T02:56:34.871Z,13.29
2023-10-26T02:57:16.624Z,13.27
2023-10-26T02:57:58.972Z,13.22
2023-10-26T02:58:43.471Z,13.18
2023-10-26T02:59:25.263Z,13.26
2023-10-26T03:00:07.708Z,13.32
2023-10-26T03:00:50.006Z,13.25
2023-10-26T03:01:35.862Z,13.26
2023-10-26T03:02:17.663Z,13.07
2023-10-26T03:03:00.024Z,13.18
2023-10-26T03:03:42.034Z,13.21
2023-10-26T03:04:23.879Z,13.24
2023-10-26T03:05:05.838Z,13.24
2023-10-26T03:05:47.621Z,13.18
2023-10-26T03:06:29.630Z,13.09
2023-10-26T03:07:12.171Z,13.12
2023-10-26T03:07:54.899Z,13.19
2023-10-26T03:08:36.634Z,13.17
2023-10-26T03:09:18.998Z,13.20
2023-10-26T03:10:01.100Z,13.26
2023-10-26T03:10:43.006Z,13.25
2023-10-26T03:11:24.773Z,13.24
2023-10-26T03:12:06.869Z,13.08
2023-10-26T03:12:49.913Z,13.24
2023-10-26T03:13:31.889Z,13.10
2023-10-26T03:14:13.602Z,13.28
2023-10-26T03:14:55.525Z,13.12
2023-10-26T03:15:37.423Z,13.15
2023-10-26T03:16:19.299Z,13.03
2023-10-26T03:17:01.844Z,13.24
2023-10-26T03:17:43.666Z,13.22
2023-10-26T03:18:25.478Z,13.24
2023-10-26T03:19:07.303Z,13.08
2023-10-26T03:19:49.769Z,13.15
2023-10-26T03:20:33.117Z,13.12
2023-10-26T03:21:16.496Z,13.27
2023-10-26T03:21:59.114Z,13.15
2023-10-26T03:22:41.073Z,13.24
2023-10-26T03:23:22.815Z,12.99
2023-10-26T03:24:04.985Z,13.12
2023-10-26T03:24:49.194Z,12.99
2023-10-26T03:25:30.895Z,13.15
2023-10-26T03:26:12.788Z,13.16
2023-10-26T03:26:54.571Z,13.17
2023-10-26T03:27:36.357Z,13.15
2023-10-26T03:28:18.347Z,13.12
2023-10-26T03:29:00.142Z,13.02
2023-10-26T03:29:41.845Z,13.13
2023-10-26T03:30:23.529Z,13.06
2023-10-26T03:31:12.080Z,13.21
2023-10-26T03:31:53.698Z,13.22
2023-10-26T03:32:35.589Z,13.22
2023-10-26T03:33:17.536Z,13.30
2023-10-26T03:33:59.690Z,13.37
2023-10-26T03:34:41.636Z,13.44
2023-10-26T03:35:23.614Z,13.42
2023-10-26T03:36:05.828Z,13.46
2023-10-26T03:36:47.562Z,13.33
2023-10-26T03:37:29.377Z,13.11
2023-10-26T03:38:11.667Z,13.29
2023-10-26T03:38:53.390Z,13.11
2023-10-26T03:39:35.587Z,13.10
2023-10-26T03:40:17.396Z,13.11
2023-10-26T03:40:59.082Z,13.02
2023-10-26T03:41:40.868Z,13.10
2023-10-26T03:42:22.765Z,13.08
2023-10-26T03:43:04.526Z,13.24
2023-10-26T03:43:46.244Z,13.29
2023-10-26T03:44:27.999Z,13.25
2023-10-26T03:45:10.331Z,13.41
2023-10-26T03:45:52.135Z,13.29
2023-10-26T03:46:33.836Z,13.43
2023-10-26T03:47:16.041Z,13.41
2023-10-26T03:48:01.091Z,13.36
2023-10-26T03:48:43.023Z,13.20
2023-10-26T03:49:25.035Z,13.34
2023-10-26T03:50:07.272Z,13.43
2023-10-26T03:50:49.229Z,13.47
2023-10-26T03:51:31.006Z,13.28
2023-10-26T03:52:12.885Z,13.37
2023-10-26T03:52:54.760Z,13.24
2023-10-26T03:53:36.488Z,13.25
2023-10-26T03:54:18.226Z,13.25
2023-10-26T03:55:03.473Z,13.39
2023-10-26T03:55:45.244Z,13.11
2023-10-26T03:56:26.927Z,13.21
2023-10-26T03:57:08.977Z,12.97
2023-10-26T03:57:50.745Z,13.25
2023-10-26T03:58:32.473Z,13.37
2023-10-26T03:59:14.213Z,13.40
2023-10-26T03:59:56.235Z,13.25
2023-10-26T04:00:37.917Z,13.30
2023-10-26T04:01:19.625Z,13.18
2023-10-26T04:02:01.378Z,12.82
2023-10-26T04:02:43.128Z,13.10
2023-10-26T04:03:25.394Z,13.08
2023-10-26T04:04:07.306Z,13.19
2023-10-26T04:04:51.219Z,13.04
2023-10-26T04:05:34.535Z,13.15
2023-10-26T04:06:16.276Z,13.01
2023-10-26T04:06:57.991Z,13.16
2023-10-26T04:07:40.867Z,13.08
2023-10-26T04:08:22.536Z,13.19
2023-10-26T04:09:04.303Z,13.15
2023-10-26T04:09:46.134Z,13.15
2023-10-26T04:10:27.820Z,13.05
2023-10-26T04:11:09.663Z,13.17
2023-10-26T04:11:51.746Z,13.16
2023-10-26T04:12:33.498Z,13.16
2023-10-26T04:13:15.210Z,13.19
2023-10-26T04:13:58.927Z,13.16
2023-10-26T04:14:40.727Z,13.10
2023-10-26T04:15:22.493Z,13.16
2023-10-26T04:16:04.633Z,13.17
2023-10-26T04:16:49.066Z,13.08
2023-10-26T04:17:31.682Z,13.07
2023-10-26T04:18:13.539Z,13.10
2023-10-26T04:18:55.235Z,13.15
2023-10-26T04:19:36.955Z,13.13
2023-10-26T04:20:19.033Z,13.12
2023-10-26T04:21:00.794Z,13.16
2023-10-26T04:21:42.643Z,13.06
2023-10-26T04:22:25.364Z,13.08
2023-10-26T04:23:07.137Z,13.11
2023-10-26T04:23:48.799Z,13.18
2023-10-26T04:24:33.173Z,13.17
2023-10-26T04:25:15.057Z,13.19
2023-10-26T04:25:56.938Z,13.05
2023-10-26T04:26:41.044Z,13.16
2023-10-26T04:27:22.846Z,13.17
2023-10-26T04:28:05.983Z,12.97
2023-10-26T04:28:52.085Z,13.14
2023-10-26T04:29:34.197Z,13.12
2023-10-26T04:30:16.225Z,13.17
2023-10-26T04:30:58.008Z,12.91
2023-10-26T04:31:39.692Z,13.13
2023-10-26T04:32:21.456Z,13.07
2023-10-26T04:33:03.383Z,13.12
2023-10-26T04:33:45.331Z,13.13
2023-10-26T04:34:28.175Z,12.99
2023-10-26T04:35:11.311Z,13.11
2023-10-26T04:35:55.814Z,13.04
2023-10-26T04:36:37.540Z,13.08
2023-10-26T04:37:19.274Z,12.98
2023-10-26T04:38:03.650Z,13.11
2023-10-26T04:38:45.378Z,13.15
2023-10-26T04:39:27.122Z,13.19
2023-10-26T04:40:09.656Z,13.17
2023-10-26T04:40:51.427Z,13.20
2023-10-26T04:41:33.162Z,13.18
2023-10-26T04:42:14.899Z,13.20
2023-10-26T04:42:56.615Z,13.28
2023-10-26T04:43:38.416Z,13.27
2023-10-26T04:44:20.921Z,13.29
2023-10-26T04:45:02.713Z,13.30
2023-10-26T04:45:47.903Z,13.24
2023-10-26T04:46:29.724Z,13.20
2023-10-26T04:47:11.458Z,13.40
2023-10-26T04:47:53.140Z,13.33
2023-10-26T04:48:34.890Z,13.33
2023-10-26T04:49:16.653Z,13.34
2023-10-26T04:49:58.413Z,13.31
2023-10-26T04:50:40.494Z,13.40
2023-10-26T04:51:22.273Z,13.44
2023-10-26T04:52:04.235Z,13.35
2023-10-26T04:52:46.088Z,13.36
2023-10-26T04:53:27.830Z,13.19
2023-10-26T04:54:09.598Z,13.25
2023-10-26T04:54:51.435Z,13.23
2023-10-26T04:55:35.161Z,13.25
2023-10-26T04:56:17.241Z,13.01
2023-10-26T04:56:59.260Z,13.26
2023-10-26T04:57:41.095Z,13.25
2023-10-26T04:58:22.708Z,13.21
2023-10-26T04:59:04.420Z,13.12
2023-10-26T04:59:46.237Z,13.12
2023-10-26T05:00:28.010Z,13.30
2023-10-26T05:01:10.436Z,13.28
2023-10-26T05:01:52.933Z,13.16
2023-10-26T05:02:34.708Z,13.11
2023-10-26T05:03:16.534Z,13.14
2023-10-26T05:03:58.351Z,13.09
2023-10-26T05:04:40.070Z,13.17
2023-10-26T05:05:21.828Z,13.16
2023-10-26T05:06:04.041Z,13.01
2023-10-26T05:06:46.002Z,13.14
2023-10-26T05:07:27.771Z,13.11
2023-10-26T05:08:12.104Z,13.17
2023-10-26T05:08:53.912Z,13.20
2023-10-26T05:09:36.973Z,13.08
2023-10-26T05:10:19.080Z,13.19
2023-10-26T05:11:00.878Z,13.21
2023-10-26T05:11:42.586Z,13.21
2023-10-26T05:12:24.324Z,13.16
2023-10-26T05:13:06.341Z,13.07
2023-10-26T05:13:49.987Z,13.12
2023-10-26T05:14:32.129Z,13.10
2023-10-26T05:15:13.986Z,13.17
2023-10-26T05:15:55.841Z,13.15
2023-10-26T05:16:38.292Z,13.17
2023-10-26T05:17:20.127Z,13.15
2023-10-26T05:18:02.014Z,13.10
2023-10-26T05:18:43.854Z,13.13
2023-10-26T05:19:25.612Z,12.98
2023-10-26T05:20:08.922Z,13.16
2023-10-26T05:20:51.083Z,13.16
2023-10-26T05:21:33.028Z,13.07
2023-10-26T05:22:14.958Z,13.03
2023-10-26T05:22:56.694Z,13.13
2023-10-26T05:23:39.488Z,13.14
2023-10-26T05:24:24.130Z,12.97
2023-10-26T05:25:06.193Z,13.23
2023-10-26T05:25:52.734Z,13.28
2023-10-26T05:26:34.590Z,13.28
2023-10-26T05:27:17.035Z,13.26
2023-10-26T05:28:00.491Z,13.20
2023-10-26T05:28:42.153Z,13.29
2023-10-26T05:29:23.955Z,13.37
2023-10-26T05:30:08.907Z,13.40
2023-10-26T05:30:50.697Z,13.30
2023-10-26T05:31:32.406Z,13.25
2023-10-26T05:32:14.133Z,13.21
2023-10-26T05:32:56.035Z,13.20
2023-10-26T05:33:37.992Z,13.01
2023-10-26T05:34:23.226Z,13.15
2023-10-26T05:35:06.644Z,13.15
2023-10-26T05:35:48.340Z,13.20
2023-10-26T05:36:30.197Z,13.00
2023-10-26T05:37:11.982Z,13.11
2023-10-26T05:37:53.724Z,13.04
2023-10-26T05:38:35.429Z,13.17
2023-10-26T05:39:17.131Z,13.12
2023-10-26T05:39:58.889Z,13.13
2023-10-26T05:40:49.758Z,13.01
2023-10-26T05:41:31.594Z,13.14
2023-10-26T05:42:13.366Z,13.17
2023-10-26T05:42:55.163Z,13.25
2023-10-26T05:43:36.847Z,13.27
2023-10-26T05:44:18.531Z,13.27
2023-10-26T05:45:00.402Z,13.20
2023-10-26T05:45:42.123Z,13.22
2023-10-26T05:46:23.821Z,13.11
2023-10-26T05:47:05.732Z,13.21
2023-10-26T05:47:52.027Z,12.99
2023-10-26T05:48:34.798Z,13.21
2023-10-26T05:49:16.586Z,13.02
2023-10-26T05:49:58.354Z,13.16
2023-10-26T05:50:44.611Z,13.25
2023-10-26T05:51:26.397Z,13.20
2023-10-26T05:52:08.254Z,13.26
2023-10-26T05:52:50.365Z,13.24
2023-10-26T05:53:32.212Z,13.04
2023-10-26T05:54:14.017Z,13.14
2023-10-26T05:54:55.774Z,13.26
2023-10-26T05:55:40.594Z,13.30
2023-10-26T05:56:22.381Z,13.30
2023-10-26T05:57:04.568Z,13.26
2023-10-26T05:57:46.370Z,13.31
2023-10-26T05:58:28.075Z,13.20
2023-10-26T05:59:09.966Z,13.35
2023-10-26T05:59:51.671Z,13.15
2023-10-26T06:00:33.422Z,13.27
2023-10-26T06:01:15.208Z,13.30
2023-10-26T06:01:57.146Z,13.10
2023-10-26T06:02:38.973Z,13.20
2023-10-26T06:03:20.865Z,13.20
2023-10-26T06:04:03.218Z,13.37
2023-10-26T06:04:44.981Z,13.45
2023-10-26T06:05:27.011Z,13.47
2023-10-26T06:06:08.838Z,13.46
2023-10-26T06:06:50.527Z,13.48
2023-10-26T06:07:32.236Z,13.51
2023-10-26T06:08:14.573Z,13.46
2023-10-26T06:08:56.508Z,13.48
2023-10-26T06:09:38.221Z,13.36
2023-10-26T06:10:19.970Z,13.46
2023-10-26T06:11:01.653Z,13.38
2023-10-26T06:11:43.403Z,13.19
2023-10-26T06:12:25.174Z,13.15
2023-10-26T06:13:08.842Z,13.29
2023-10-26T06:13:50.629Z,13.26
2023-10-26T06:14:32.291Z,13.24
2023-10-26T06:15:14.096Z,13.28
2023-10-26T06:15:55.930Z,13.22
2023-10-26T06:16:38.398Z,13.27
2023-10-26T06:17:20.114Z,13.36
2023-10-26T06:18:02.137Z,13.31
2023-10-26T06:18:44.061Z,13.33
2023-10-26T06:19:25.766Z,13.17
2023-10-26T06:20:08.944Z,13.32
2023-10-26T06:21:01.254Z,13.37
2023-10-26T06:21:42.969Z,13.21
2023-10-26T06:22:25.590Z,13.32
2023-10-26T06:23:08.983Z,13.27
2023-10-26T06:23:51.803Z,13.22
2023-10-26T06:24:35.298Z,13.20
2023-10-26T06:25:17.677Z,13.12
2023-10-26T06:26:00.136Z,13.21
2023-10-26T06:26:41.914Z,13.05
2023-10-26T06:27:23.698Z,13.09
2023-10-26T06:28:05.856Z,13.23
2023-10-26T06:28:48.050Z,13.24
2023-10-26T06:29:29.886Z,13.17
2023-10-26T06:30:11.953Z,13.08
2023-10-26T06:30:54.727Z,13.12
2023-10-26T06:31:36.611Z,13.05
2023-10-26T06:32:18.449Z,13.16
2023-10-26T06:33:01.996Z,13.03
2023-10-26T06:33:44.416Z,13.20
2023-10-26T06:34:26.182Z,13.20
2023-10-26T06:35:08.595Z,13.13
2023-10-26T06:35:50.722Z,13.23
2023-10-26T06:36:32.468Z,13.11
2023-10-26T06:37:14.191Z,13.28
2023-10-26T06:37:56.036Z,13.23
2023-10-26T06:38:39.118Z,13.07
2023-10-26T06:39:20.852Z,13.23
2023-10-26T06:40:02.580Z,13.24
2023-10-26T06:40:46.523Z,13.10
2023-10-26T06:41:28.317Z,13.12
2023-10-26T06:42:10.168Z,13.33
2023-10-26T06:42:51.877Z,13.35
2023-10-26T06:43:33.557Z,13.37
2023-10-26T06:44:15.273Z,13.28
2023-10-26T06:44:57.051Z,13.40
2023-10-26T06:45:38.780Z,13.40
2023-10-26T06:46:20.679Z,13.27
2023-10-26T06:47:02.548Z,13.40
2023-10-26T06:47:47.066Z,13.35
2023-10-26T06:48:28.979Z,13.23
2023-10-26T06:49:22.965Z,13.41
2023-10-26T06:50:11.186Z,13.30
2023-10-26T06:50:59.741Z,13.39
2023-10-26T06:51:41.813Z,13.37
2023-10-26T06:52:24.679Z,13.38
2023-10-26T06:53:06.354Z,13.36
2023-10-26T06:53:48.092Z,13.19
2023-10-26T06:54:29.952Z,13.24
2023-10-26T06:55:30.168Z,13.34
2023-10-26T06:56:14.262Z,13.34
2023-10-26T06:56:56.568Z,13.36
2023-10-26T06:57:38.591Z,13.23
2023-10-26T06:58:21.221Z,13.26
2023-10-26T06:59:03.886Z,13.21
2023-10-26T06:59:47.101Z,13.29
2023-10-26T07:00:30.028Z,13.27
2023-10-26T07:01:19.776Z,13.26
2023-10-26T07:02:10.503Z,13.16
2023-10-26T07:02:55.609Z,13.26
2023-10-26T07:03:38.359Z,13.15
2023-10-26T07:04:21.176Z,13.23
2023-10-26T07:05:04.982Z,13.20
2023-10-26T07:05:49.586Z,13.18
2023-10-26T07:06:33.191Z,13.19
2023-10-26T07:07:18.360Z,13.21
2023-10-26T07:08:01.261Z,13.22
2023-10-26T07:08:43.970Z,13.23
2023-10-26T07:09:27.356Z,13.22
2023-10-26T07:10:16.422Z,13.09
2023-10-26T07:11:00.512Z,13.17
2023-10-26T07:11:43.821Z,13.25
2023-10-26T07:12:25.885Z,13.16
2023-10-26T07:13:09.195Z,13.28
2023-10-26T07:13:51.247Z,13.43
2023-10-26T07:14:33.323Z,13.42
2023-10-26T07:15:15.485Z,13.55
2023-10-26T07:16:02.039Z,13.58
2023-10-26T07:16:44.074Z,13.58
2023-10-26T07:17:25.885Z,13.55
2023-10-26T07:18:07.972Z,13.51
2023-10-26T07:18:50.369Z,13.57
2023-10-26T07:19:32.218Z,13.65
2023-10-26T07:20:14.137Z,13.69
2023-10-26T07:20:56.180Z,13.75
2023-10-26T07:21:38.081Z,13.59
2023-10-26T07:22:19.866Z,13.65
2023-10-26T07:23:01.569Z,13.78
2023-10-26T07:23:43.326Z,13.82
2023-10-26T07:24:25.093Z,13.82
2023-10-26T07:25:07.840Z,13.77
2023-10-26T07:25:51.184Z,13.86
2023-10-26T07:26:36.157Z,13.89
2023-10-26T07:27:18.008Z,13.84
2023-10-26T07:27:59.683Z,13.96
2023-10-26T07:28:41.433Z,13.80
2023-10-26T07:29:23.175Z,13.99
2023-10-26T07:30:05.821Z,14.01
2023-10-26T07:30:52.235Z,14.03
2023-10-26T07:31:34.071Z,13.96
2023-10-26T07:32:15.880Z,13.93
2023-10-26T07:32:57.662Z,14.03
2023-10-26T07:33:39.506Z,14.06
2023-10-26T07:34:22.177Z,13.98
2023-10-26T07:35:04.124Z,14.11
2023-10-26T07:35:57.537Z,13.96
2023-10-26T07:36:39.414Z,14.14
2023-10-26T07:37:21.305Z,14.19
2023-10-26T07:38:35.353Z,14.16
2023-10-26T07:39:44.381Z,14.27
2023-10-26T07:40:28.815Z,14.26
2023-10-26T07:41:09.279Z,14.35
2023-10-26T07:42:07.052Z,14.21
2023-10-26T07:42:50.043Z,14.41
2023-10-26T07:43:32.269Z,14.46
2023-10-26T07:44:13.968Z,14.42
2023-10-26T07:44:55.795Z,14.52
2023-10-26T07:45:37.469Z,14.32
2023-10-26T07:46:21.084Z,14.63
2023-10-26T07:47:03.391Z,14.65
2023-10-26T07:47:45.068Z,14.56
2023-10-26T07:48:26.778Z,14.61
2023-10-26T07:49:09.393Z,14.71
2023-10-26T07:49:51.009Z,14.72
2023-10-26T07:50:32.647Z,14.73
2023-10-26T07:51:16.508Z,14.56
2023-10-26T07:52:01.157Z,14.57
2023-10-26T07:52:42.915Z,14.62
2023-10-26T07:53:25.157Z,14.75
2023-10-26T07:54:07.146Z,14.64
2023-10-26T07:54:49.121Z,14.71
2023-10-26T07:55:30.803Z,14.74
2023-10-26T07:56:12.555Z,14.67
2023-10-26T07:56:54.218Z,14.51
2023-10-26T07:57:35.982Z,14.66
2023-10-26T07:58:17.704Z,14.62
2023-10-26T07:58:59.935Z,14.59
2023-10-26T07:59:42.397Z,14.55
2023-10-26T08:00:24.273Z,14.51
2023-10-26T08:01:10.468Z,14.56
2023-10-26T08:01:52.354Z,14.58
2023-10-26T08:02:35.257Z,14.62
2023-10-26T08:03:17.955Z,14.69
2023-10-26T08:03:59.642Z,14.71
2023-10-26T08:04:41.419Z,14.78
2023-10-26T08:05:23.252Z,14.82
2023-10-26T08:06:06.274Z,14.84
2023-10-26T08:06:48.022Z,14.89
2023-10-26T08:07:30.471Z,14.74
2023-10-26T08:08:14.610Z,14.83
2023-10-26T08:08:57.683Z,14.88
2023-10-26T08:09:39.404Z,14.85
2023-10-26T08:10:27.403Z,14.85
2023-10-26T08:11:09.980Z,14.85
2023-10-26T08:11:51.737Z,14.82
2023-10-26T08:12:33.548Z,14.77
2023-10-26T08:13:15.207Z,14.79
2023-10-26T08:13:56.996Z,14.67
2023-10-26T08:16:05.928Z,14.40
2023-10-26T08:16:09.309Z,14.62
2023-10-26T08:16:48.130Z,14.51
2023-10-26T08:17:33.998Z,14.62
2023-10-26T08:18:15.891Z,14.52
2023-10-26T08:18:57.971Z,14.68
2023-10-26T08:19:40.032Z,14.49
2023-10-26T08:20:21.829Z,14.80
2023-10-26T08:21:06.666Z,14.86
2023-10-26T08:21:48.439Z,14.89
2023-10-26T08:22:30.145Z,14.90
2023-10-26T08:23:12.010Z,14.74
2023-10-26T08:23:53.729Z,14.92
2023-10-26T08:24:35.388Z,14.76
2023-10-26T08:25:21.735Z,14.83
2023-10-26T08:26:10.491Z,14.92
2023-10-26T08:26:52.741Z,14.74
2023-10-26T08:27:36.974Z,14.87
2023-10-26T08:28:18.873Z,14.70
2023-10-26T08:29:45.221Z,14.59
2023-10-26T08:30:26.997Z,14.48
2023-10-26T08:31:09.861Z,14.58
2023-10-26T08:31:51.708Z,14.57
2023-10-26T08:32:33.723Z,14.45
2023-10-26T08:33:16.309Z,14.49
2023-10-26T08:33:58.126Z,14.34
2023-10-26T08:34:40.718Z,14.48
2023-10-26T08:35:22.498Z,14.43
2023-10-26T08:36:05.574Z,14.37
2023-10-26T08:36:56.033Z,14.49
2023-10-26T08:37:50.457Z,14.49
2023-10-26T08:38:34.055Z,14.42
2023-10-26T08:39:16.029Z,14.38
2023-10-26T08:40:00.773Z,14.24
2023-10-26T08:40:52.999Z,14.33
2023-10-26T08:41:34.772Z,14.29
2023-10-26T08:42:17.062Z,14.43
2023-10-26T08:43:01.074Z,14.24
2023-10-26T08:43:44.246Z,14.38
2023-10-26T08:44:27.843Z,14.58
2023-10-26T08:45:14.079Z,14.49
2023-10-26T08:45:59.462Z,14.61
2023-10-26T08:46:42.280Z,14.62
2023-10-26T08:47:26.945Z,14.59
2023-10-26T08:48:10.224Z,14.62
2023-10-26T08:48:55.629Z,14.54
2023-10-26T08:49:38.220Z,14.44
2023-10-26T08:50:24.794Z,14.64
2023-10-26T08:51:06.885Z,14.54
2023-10-26T08:51:48.677Z,14.67
2023-10-26T08:52:30.501Z,14.68
2023-10-26T08:53:12.817Z,14.73
2023-10-26T08:53:55.899Z,14.78
2023-10-26T08:54:39.460Z,14.81
2023-10-26T08:55:21.425Z,14.84
2023-10-26T08:56:03.409Z,14.86
2023-10-26T08:56:45.256Z,14.89
2023-10-26T08:57:26.886Z,14.75
2023-10-26T08:58:09.327Z,14.88
2023-10-26T08:58:56.122Z,14.73
2023-10-26T08:59:38.569Z,14.70
2023-10-26T09:00:21.038Z,14.75
2023-10-26T09:01:05.521Z,14.83
2023-10-26T09:01:47.975Z,14.78
2023-10-26T09:02:32.939Z,14.87
2023-10-26T09:03:15.068Z,14.87
2023-10-26T09:03:57.073Z,14.87
2023-10-26T09:04:38.894Z,14.88
2023-10-26T09:05:20.839Z,14.78
2023-10-26T09:06:02.727Z,14.74
2023-10-26T09:06:49.996Z,14.86
2023-10-26T09:07:32.206Z,14.82
2023-10-26T09:08:20.344Z,14.77
2023-10-26T09:09:05.261Z,14.84
2023-10-26T09:09:48.273Z,14.69
2023-10-26T09:10:31.601Z,14.80
2023-10-26T09:11:23.704Z,14.73
2023-10-26T09:12:11.967Z,14.73